logo
Rechercher aéroport 
image banner adimage banner adimage banner ad
image banner ad

VT70 - North Country Hospital

Situé à Newport, United States

ICAO - VT70, IATA -

Données fournies par Airmate  

Information générale

Coordonnées: N44°57'22" W72°11'58"
Élévation : 690 feet MSL.
Variation magnétique : -16° East
Voir autres Aéroports à Vermont

Données opérationnelles

Special qualification required
Heure actuelle UTC:
Heure actuelle locale:
Météo à : KEFK - Northeast Kingdom Intl ( 8 km )
METAR: KEFK 251655Z AUTO 03006KT 10SM SCT049 19/09 A2990 RMK AO2 T01860088
TAF: KEFK 251132Z 2512/2612 00000KT P6SM FEW240 FM251800 31004KT P6SM SCT190 FM252200 00000KT P6SM BKN160
Voir NOTAMs / SUP AIP / TFR affectant cet aéroport [VIEW]
Fréquences de communication: [VIEW]

Pistes:

Identifiant RWYQFULongueur (ft)Largeur (ft)SurfaceLDA (ft)
H15050ASPH/ CONC
5050ASPH/ CONC

Coordonnées de l'aéroport

Adresse: Newport United States

Vue satellite de VT70